Time;durP1;ratioP1;P1;durP2;ratioP2;P2;SDS_P1;SDS_P2;PMS_P1;PMS_P2;Temp;Humidity;BMP_temperature;BMP_pressure;BME280_temperature;BME280_humidity;BME280_pressure;Samples;Min_cycle;Max_cycle;Signal;HPM_P1;HPM_P2
2023/02/18 00:01:13;;;;;;;16.55;2.67;;;5.30;89.10;;;;;;5065807;28;20037;-82
2023/02/18 00:03:42;;;;;;;10.80;2.22;;;5.20;89.20;;;;;;5068729;28;20089;-81
2023/02/18 00:06:13;;;;;;;14.90;1.98;;;5.30;89.30;;;;;;5070739;28;20041;-77
2023/02/18 00:08:39;;;;;;;15.80;2.33;;;5.20;89.20;;;;;;5068043;28;20365;-82
2023/02/18 00:11:06;;;;;;;13.95;2.15;;;5.20;89.40;;;;;;5062252;28;20052;-79
2023/02/18 00:13:32;;;;;;;14.60;2.63;;;5.10;89.60;;;;;;5067302;28;21392;-80
2023/02/18 00:16:09;;;;;;;16.00;2.25;;;5.10;89.40;;;;;;5065751;28;20044;-82
2023/02/18 00:18:34;;;;;;;12.35;2.33;;;5.10;89.80;;;;;;5066371;28;20042;-81
2023/02/18 00:21:02;;;;;;;11.93;2.25;;;5.10;89.70;;;;;;5065618;28;20159;-82
2023/02/18 00:23:27;;;;;;;11.57;2.20;;;5.10;89.50;;;;;;5067448;28;20083;-81
2023/02/18 00:26:05;;;;;;;11.68;1.90;;;5.10;89.60;;;;;;5065845;28;20032;-80
2023/02/18 00:28:31;;;;;;;13.25;2.17;;;5.00;89.90;;;;;;5069025;28;20477;-82
2023/02/18 00:30:56;;;;;;;10.63;1.90;;;5.10;89.80;;;;;;5069775;28;20078;-79
2023/02/18 00:33:22;;;;;;;9.77;2.25;;;5.10;90.10;;;;;;5067051;28;20048;-81
2023/02/18 00:35:47;;;;;;;14.68;2.03;;;5.00;89.90;;;;;;5074517;28;20838;-78
2023/02/18 00:38:13;;;;;;;11.15;2.40;;;5.00;90.30;;;;;;5074207;28;20064;-82
2023/02/18 00:40:39;;;;;;;6.43;1.92;;;5.10;90.10;;;;;;5064095;28;20040;-82
2023/02/18 00:43:05;;;;;;;14.43;1.80;;;5.10;90.20;;;;;;5071866;28;20048;-82
2023/02/18 00:45:30;;;;;;;13.30;2.33;;;5.00;90.50;;;;;;5073926;28;20036;-82
2023/02/18 00:47:56;;;;;;;20.58;2.90;;;5.10;90.60;;;;;;5072080;28;20090;-82
2023/02/18 00:50:21;;;;;;;10.27;2.28;;;5.10;90.50;;;;;;5064451;28;20039;-79
2023/02/18 00:52:47;;;;;;;18.38;2.25;;;5.10;90.80;;;;;;5073476;28;20034;-81
2023/02/18 00:55:12;;;;;;;15.88;2.58;;;5.10;90.90;;;;;;5066288;28;20032;-80
2023/02/18 00:57:38;;;;;;;9.65;2.03;;;5.00;91.10;;;;;;5064686;28;20130;-82
2023/02/18 01:00:05;;;;;;;21.10;2.60;;;5.10;91.10;;;;;;5070922;28;20033;-82
2023/02/18 01:02:30;;;;;;;18.95;2.75;;;5.00;91.50;;;;;;5068812;28;20100;-80
2023/02/18 01:04:56;;;;;;;15.00;2.80;;;5.00;91.80;;;;;;5074495;28;20155;-82
2023/02/18 01:07:22;;;;;;;14.30;2.35;;;5.00;91.80;;;;;;5073165;28;20090;-81
2023/02/18 01:09:47;;;;;;;24.30;2.75;;;5.00;92.30;;;;;;5069324;28;20036;-77
2023/02/18 01:12:13;;;;;;;13.15;2.85;;;5.10;92.30;;;;;;5067920;28;20029;-81
2023/02/18 01:14:39;;;;;;;17.33;2.50;;;5.00;92.30;;;;;;5061682;28;20033;-81
2023/02/18 01:17:04;;;;;;;13.68;2.78;;;5.10;92.20;;;;;;5069122;28;20029;-82
2023/02/18 01:19:29;;;;;;;13.73;3.15;;;5.10;92.50;;;;;;5069791;28;20032;-81
2023/02/18 01:21:55;;;;;;;14.32;2.08;;;5.10;92.50;;;;;;5066235;28;20052;-81
2023/02/18 01:24:21;;;;;;;15.23;2.28;;;5.10;92.40;;;;;;5066755;28;20033;-82
2023/02/18 01:26:46;;;;;;;21.42;2.53;;;5.20;92.30;;;;;;5056027;28;20033;-77
2023/02/18 01:29:12;;;;;;;17.60;2.75;;;5.10;92.40;;;;;;5059684;28;20052;-82
2023/02/18 01:31:37;;;;;;;18.05;2.28;;;5.10;92.50;;;;;;5069449;28;20048;-82
2023/02/18 01:34:02;;;;;;;18.95;2.85;;;5.10;92.50;;;;;;5066521;28;20035;-80
2023/02/18 01:36:28;;;;;;;20.45;2.72;;;5.20;92.40;;;;;;5073257;28;20024;-81
2023/02/18 01:38:53;;;;;;;13.98;2.35;;;5.30;92.10;;;;;;5072220;28;20036;-80
2023/02/18 01:41:19;;;;;;;20.25;3.28;;;5.30;91.90;;;;;;5072051;28;20050;-82
2023/02/18 01:43:45;;;;;;;17.65;2.47;;;5.30;91.70;;;;;;5071443;28;20381;-81
2023/02/18 01:46:19;;;;;;;13.30;2.83;;;5.30;91.90;;;;;;5071439;28;20036;-82
2023/02/18 01:48:50;;;;;;;19.10;2.88;;;5.30;92.00;;;;;;5069442;28;20029;-80
2023/02/18 01:51:20;;;;;;;13.43;2.17;;;5.30;91.80;;;;;;5072841;28;20065;-81
2023/02/18 01:54:06;;;;;;;17.67;2.00;;;5.40;91.60;;;;;;5072467;28;20460;-82
2023/02/18 01:56:39;;;;;;;16.33;2.40;;;5.40;91.40;;;;;;5058109;28;20040;-82
2023/02/18 01:59:11;;;;;;;14.55;2.50;;;5.40;91.50;;;;;;5066204;28;20036;-80
2023/02/18 02:01:39;;;;;;;13.75;2.17;;;5.40;91.40;;;;;;5068785;28;20028;-82
2023/02/18 02:04:04;;;;;;;17.88;2.90;;;5.50;91.10;;;;;;5069023;28;20025;-78
2023/02/18 02:06:30;;;;;;;11.77;2.00;;;5.50;91.20;;;;;;5069711;28;20114;-81
2023/02/18 02:09:00;;;;;;;13.63;1.88;;;5.50;91.00;;;;;;5068108;28;20576;-84
2023/02/18 02:11:45;;;;;;;10.65;1.83;;;5.60;90.60;;;;;;5063562;28;20036;-83
2023/02/18 02:14:29;;;;;;;12.80;2.22;;;5.60;90.70;;;;;;5067764;28;20473;-84
2023/02/18 02:17:14;;;;;;;11.02;1.80;;;5.60;90.80;;;;;;5068956;28;20051;-81
2023/02/18 02:20:36;;;;;;;12.45;2.28;;;5.60;90.50;;;;;;5065464;28;20040;-81
2023/02/18 02:23:29;;;;;;;9.90;1.73;;;5.60;90.60;;;;;;5070626;28;20075;-82
2023/02/18 02:26:19;;;;;;;13.60;2.28;;;5.70;90.00;;;;;;5067626;28;20029;-80
2023/02/18 02:29:32;;;;;;;12.80;2.35;;;5.70;90.00;;;;;;5068525;28;20037;-81
2023/02/18 02:32:20;;;;;;;11.35;2.00;;;5.70;90.00;;;;;;5002084;28;20030;-84
2023/02/18 02:35:12;;;;;;;13.05;2.30;;;5.70;89.90;;;;;;5062850;28;20045;-81
2023/02/18 02:37:55;;;;;;;11.07;1.60;;;5.70;90.00;;;;;;5069082;28;20535;-82
2023/02/18 02:40:52;;;;;;;14.10;2.05;;;5.70;89.90;;;;;;5068837;28;20055;-82
2023/02/18 02:43:39;;;;;;;13.23;2.35;;;5.70;90.10;;;;;;5069906;28;20035;-81
2023/02/18 02:46:19;;;;;;;19.30;2.33;;;5.80;89.70;;;;;;5066008;28;20028;-82
2023/02/18 02:49:17;;;;;;;11.27;1.83;;;5.80;89.60;;;;;;5065495;28;20029;-82
2023/02/18 02:51:52;;;;;;;11.43;1.83;;;5.80;89.70;;;;;;5059069;28;20039;-82
2023/02/18 02:54:24;;;;;;;10.35;2.33;;;5.80;89.80;;;;;;5064513;28;20066;-80
2023/02/18 02:57:12;;;;;;;17.90;2.22;;;5.80;89.80;;;;;;5062565;28;20024;-82
2023/02/18 02:59:42;;;;;;;11.93;2.13;;;5.90;89.70;;;;;;5067988;28;20029;-80
2023/02/18 03:02:34;;;;;;;12.90;1.88;;;5.90;89.60;;;;;;5067913;28;20046;-82
2023/02/18 03:05:24;;;;;;;13.55;1.77;;;5.90;89.60;;;;;;5068254;28;20024;-82
2023/02/18 03:08:11;;;;;;;10.38;1.70;;;5.90;89.70;;;;;;5063748;28;20072;-82
2023/02/18 03:11:01;;;;;;;12.77;2.13;;;5.90;89.80;;;;;;5065547;28;20495;-82
2023/02/18 03:13:55;;;;;;;19.05;2.30;;;5.80;90.10;;;;;;5065388;28;20035;-82
2023/02/18 03:16:35;;;;;;;13.63;1.85;;;5.80;90.00;;;;;;5060241;28;20056;-78
2023/02/18 03:19:09;;;;;;;13.00;2.67;;;5.80;90.30;;;;;;5064602;28;20040;-79
2023/02/18 03:21:46;;;;;;;13.20;1.88;;;5.80;90.50;;;;;;5063986;28;20123;-81
2023/02/18 03:24:25;;;;;;;17.08;2.67;;;5.80;90.10;;;;;;5067045;28;20032;-80
2023/02/18 03:27:23;;;;;;;10.18;2.53;;;5.80;90.20;;;;;;5069909;28;20048;-81
2023/02/18 03:29:56;;;;;;;12.38;2.75;;;5.80;90.40;;;;;;5065760;28;20048;-82
2023/02/18 03:32:24;;;;;;;14.60;2.22;;;5.80;90.50;;;;;;5067518;28;20040;-81
2023/02/18 03:34:54;;;;;;;11.93;2.05;;;5.80;90.60;;;;;;5067934;28;20033;-81
2023/02/18 03:37:21;;;;;;;17.58;2.63;;;5.80;90.40;;;;;;5066060;28;20037;-81
2023/02/18 03:39:51;;;;;;;17.27;2.35;;;5.80;90.20;;;;;;5069472;28;20043;-79
2023/02/18 03:42:17;;;;;;;13.25;2.45;;;5.90;90.20;;;;;;5065056;28;20044;-78
2023/02/18 03:44:43;;;;;;;14.73;2.63;;;5.90;90.00;;;;;;5069219;28;20369;-82
2023/02/18 03:47:09;;;;;;;15.20;2.60;;;5.90;90.00;;;;;;5064687;28;20040;-81
2023/02/18 03:49:34;;;;;;;9.88;2.63;;;5.90;90.00;;;;;;5069044;28;20028;-82
2023/02/18 03:52:00;;;;;;;10.48;2.53;;;5.90;90.20;;;;;;5068644;28;20689;-82
2023/02/18 03:54:25;;;;;;;13.65;2.35;;;5.90;90.00;;;;;;5067430;28;21308;-82
2023/02/18 03:56:50;;;;;;;13.23;2.38;;;6.00;90.00;;;;;;5066180;28;20309;-82
2023/02/18 03:59:16;;;;;;;15.07;2.65;;;6.00;90.00;;;;;;5068755;28;20040;-82
2023/02/18 04:01:42;;;;;;;13.50;1.98;;;6.00;89.80;;;;;;5066057;28;20032;-81
2023/02/18 04:04:07;;;;;;;14.43;2.70;;;6.00;90.00;;;;;;5068040;28;20032;-80
2023/02/18 04:06:33;;;;;;;13.88;2.15;;;5.90;90.40;;;;;;5069855;28;20094;-82
2023/02/18 04:08:58;;;;;;;9.20;1.77;;;5.90;90.60;;;;;;5069331;28;20035;-81
2023/02/18 04:11:24;;;;;;;9.75;1.58;;;5.80;91.00;;;;;;5066487;28;20872;-82
2023/02/18 04:13:49;;;;;;;13.13;1.98;;;5.80;91.20;;;;;;5070534;28;20044;-82
2023/02/18 04:16:15;;;;;;;11.75;2.10;;;5.80;91.00;;;;;;5064879;28;20025;-82
2023/02/18 04:18:40;;;;;;;12.48;1.83;;;5.80;91.40;;;;;;5069591;28;20481;-81
2023/02/18 04:21:05;;;;;;;11.65;2.20;;;5.80;91.70;;;;;;5069384;28;20925;-81
2023/02/18 04:23:31;;;;;;;14.95;2.00;;;5.80;91.80;;;;;;5071054;28;20051;-79
2023/02/18 04:25:57;;;;;;;14.57;2.17;;;5.70;92.30;;;;;;5070495;28;20039;-81
2023/02/18 04:28:22;;;;;;;10.63;2.10;;;5.70;92.50;;;;;;5071157;28;20119;-82
2023/02/18 04:30:48;;;;;;;12.65;2.20;;;5.60;92.60;;;;;;5070880;28;20824;-82
2023/02/18 04:33:14;;;;;;;7.43;1.95;;;5.60;93.00;;;;;;5064405;28;20033;-82
2023/02/18 04:35:40;;;;;;;9.40;1.50;;;5.60;93.10;;;;;;5069963;28;20496;-82
2023/02/18 04:38:06;;;;;;;13.80;2.60;;;5.60;93.10;;;;;;5067899;28;20050;-81
2023/02/18 04:40:31;;;;;;;14.18;2.17;;;5.60;92.90;;;;;;5066565;28;20033;-81
2023/02/18 04:42:58;;;;;;;10.65;1.88;;;5.70;92.40;;;;;;5068426;28;20044;-79
2023/02/18 04:45:24;;;;;;;15.02;2.08;;;5.60;92.50;;;;;;5070464;28;20037;-81
2023/02/18 04:47:49;;;;;;;10.55;1.73;;;5.70;92.50;;;;;;5071811;28;20028;-81
2023/02/18 04:50:15;;;;;;;9.02;1.90;;;5.60;92.70;;;;;;5071667;28;20107;-82
2023/02/18 04:52:41;;;;;;;11.38;2.30;;;5.60;92.90;;;;;;5071814;28;20042;-82
2023/02/18 04:55:06;;;;;;;12.43;2.38;;;5.60;93.30;;;;;;5070003;28;20041;-82
2023/02/18 04:57:32;;;;;;;10.85;2.03;;;5.60;93.40;;;;;;5066977;28;20040;-80
2023/02/18 04:59:57;;;;;;;13.65;2.17;;;5.60;93.50;;;;;;5069919;28;20043;-81
2023/02/18 05:02:23;;;;;;;11.13;2.03;;;5.60;93.50;;;;;;5072845;28;20043;-75
2023/02/18 05:04:48;;;;;;;13.48;1.77;;;5.60;93.50;;;;;;5072127;28;20561;-81
2023/02/18 05:07:14;;;;;;;13.25;2.25;;;5.50;93.50;;;;;;5068368;28;20040;-82
2023/02/18 05:09:39;;;;;;;12.98;1.75;;;5.60;93.40;;;;;;5069243;28;20519;-82
2023/02/18 05:12:05;;;;;;;15.60;2.28;;;5.60;93.70;;;;;;5071161;28;20109;-79
2023/02/18 05:14:31;;;;;;;14.57;2.30;;;5.50;93.80;;;;;;5068093;28;20032;-79
2023/02/18 05:16:56;;;;;;;10.50;2.25;;;5.50;94.10;;;;;;5072032;28;20479;-81
2023/02/18 05:19:22;;;;;;;13.68;2.42;;;5.50;94.10;;;;;;5070111;28;20028;-80
2023/02/18 05:21:47;;;;;;;12.20;2.15;;;5.40;94.20;;;;;;5066385;28;20731;-78
2023/02/18 05:24:13;;;;;;;14.32;2.30;;;5.50;94.00;;;;;;5068098;28;20020;-77
2023/02/18 05:26:39;;;;;;;17.35;2.40;;;5.40;94.20;;;;;;5070493;28;20503;-77
2023/02/18 05:29:04;;;;;;;12.05;1.75;;;5.40;94.30;;;;;;5062171;28;20024;-72
2023/02/18 05:31:30;;;;;;;11.30;2.05;;;5.40;94.40;;;;;;5073343;28;20025;-72
2023/02/18 05:33:55;;;;;;;15.52;2.25;;;5.40;94.50;;;;;;5072125;28;20032;-72
2023/02/18 05:36:21;;;;;;;15.52;2.10;;;5.30;94.50;;;;;;5071288;28;20097;-72
2023/02/18 05:38:47;;;;;;;8.98;1.85;;;5.30;94.70;;;;;;5071891;28;20036;-72
2023/02/18 05:41:12;;;;;;;16.15;2.30;;;5.30;94.60;;;;;;5068634;28;20047;-71
2023/02/18 05:46:22;;;;;;;10.35;1.83;;;5.30;94.70;;;;;;5071911;28;20543;-72
2023/02/18 05:48:47;;;;;;;10.18;1.42;;;5.40;94.50;;;;;;5073103;28;20032;-72
2023/02/18 05:51:13;;;;;;;15.63;1.95;;;5.40;94.10;;;;;;5072746;28;20032;-71
2023/02/18 05:53:39;;;;;;;8.98;1.40;;;5.40;94.10;;;;;;5073107;28;20028;-72
2023/02/18 05:56:06;;;;;;;15.25;2.13;;;5.50;93.70;;;;;;5067290;28;20025;-72
2023/02/18 05:58:31;;;;;;;8.07;1.17;;;5.40;93.90;;;;;;5062602;28;20036;-72
2023/02/18 06:00:56;;;;;;;9.77;1.42;;;5.40;93.80;;;;;;5063935;28;21879;-72
2023/02/18 06:03:22;;;;;;;12.45;1.60;;;5.40;93.80;;;;;;5066207;28;20040;-72
2023/02/18 06:05:51;;;;;;;8.55;1.40;;;5.50;93.70;;;;;;5067138;28;20041;-72
2023/02/18 06:08:18;;;;;;;7.57;1.67;;;5.50;93.70;;;;;;5065888;28;20033;-72
2023/02/18 06:10:44;;;;;;;6.70;1.23;;;5.40;94.00;;;;;;5067546;28;20032;-70
2023/02/18 06:13:09;;;;;;;6.10;1.17;;;5.50;94.00;;;;;;5066259;28;20032;-72
2023/02/18 06:15:35;;;;;;;5.78;1.30;;;5.40;94.30;;;;;;5066726;28;20032;-72
2023/02/18 06:18:00;;;;;;;8.73;1.85;;;5.40;94.60;;;;;;5065973;28;20033;-71
2023/02/18 06:20:26;;;;;;;13.05;1.48;;;5.40;95.00;;;;;;5065421;28;20024;-72
2023/02/18 06:22:51;;;;;;;8.07;1.33;;;5.30;95.10;;;;;;5066456;28;20060;-72
2023/02/18 06:25:17;;;;;;;10.95;1.48;;;5.30;95.40;;;;;;5058699;28;20123;-72
2023/02/18 06:27:42;;;;;;;11.73;1.33;;;5.30;95.60;;;;;;5061639;28;20039;-72
2023/02/18 06:30:08;;;;;;;6.95;1.40;;;5.30;95.80;;;;;;5064864;28;20456;-73
2023/02/18 06:32:34;;;;;;;9.73;1.60;;;5.30;96.00;;;;;;5066005;28;20032;-73
2023/02/18 06:34:59;;;;;;;8.60;1.70;;;5.20;96.20;;;;;;5068881;28;20036;-73
2023/02/18 06:37:25;;;;;;;6.93;1.50;;;5.20;96.40;;;;;;5065800;28;20044;-74
2023/02/18 06:39:50;;;;;;;13.73;1.83;;;5.20;96.60;;;;;;5065640;28;20465;-74
2023/02/18 06:42:16;;;;;;;6.45;1.27;;;5.20;96.80;;;;;;5063773;28;20376;-74
2023/02/18 06:44:41;;;;;;;10.52;1.80;;;5.10;96.90;;;;;;5064132;28;20055;-74
2023/02/18 06:47:07;;;;;;;18.10;2.00;;;5.10;97.20;;;;;;5060920;28;20032;-73
2023/02/18 06:49:32;;;;;;;8.32;1.52;;;5.30;97.40;;;;;;5070325;28;20033;-73
2023/02/18 06:51:58;;;;;;;10.00;1.90;;;5.20;97.30;;;;;;5064822;28;20025;-74
2023/02/18 06:54:24;;;;;;;10.38;1.48;;;5.20;97.40;;;;;;5066251;28;20427;-73
2023/02/18 06:56:50;;;;;;;5.25;1.27;;;5.20;97.50;;;;;;5062946;28;20530;-73
2023/02/18 06:59:15;;;;;;;14.35;1.73;;;5.20;97.60;;;;;;5065038;28;20032;-73
2023/02/18 07:01:40;;;;;;;14.70;2.25;;;5.20;97.80;;;;;;5062853;28;20028;-73
2023/02/18 07:04:06;;;;;;;15.25;2.20;;;5.30;97.90;;;;;;5064161;28;20037;-74
2023/02/18 07:06:32;;;;;;;11.18;1.63;;;5.20;98.00;;;;;;5070573;28;20446;-71
2023/02/18 07:08:57;;;;;;;14.15;2.20;;;5.30;98.10;;;;;;5064720;28;20033;-72
2023/02/18 07:11:22;;;;;;;7.78;2.03;;;5.20;98.30;;;;;;5067158;28;20039;-72
2023/02/18 07:13:48;;;;;;;19.30;2.67;;;5.30;98.40;;;;;;5056675;28;20025;-74
2023/02/18 07:16:13;;;;;;;14.68;1.70;;;5.30;98.60;;;;;;5061257;28;20071;-72
2023/02/18 07:18:39;;;;;;;9.75;1.90;;;5.30;98.70;;;;;;5064991;28;20477;-72
2023/02/18 07:21:04;;;;;;;10.90;1.95;;;5.40;98.70;;;;;;5057611;28;20025;-72
2023/02/18 07:23:30;;;;;;;16.27;2.50;;;5.40;98.80;;;;;;5065029;28;20077;-72
2023/02/18 07:26:04;;;;;;;13.35;2.25;;;5.40;98.90;;;;;;5069722;28;20043;-72
2023/02/18 07:28:29;;;;;;;14.68;2.42;;;5.40;99.00;;;;;;5060839;28;20037;-72
2023/02/18 07:30:55;;;;;;;11.18;2.22;;;5.40;99.00;;;;;;5056116;28;20035;-72
2023/02/18 07:33:20;;;;;;;11.23;2.20;;;5.40;99.10;;;;;;5070878;28;20126;-72
2023/02/18 07:35:46;;;;;;;11.50;1.52;;;5.50;99.20;;;;;;5064289;28;20040;-72
2023/02/18 07:38:11;;;;;;;14.27;2.08;;;5.40;99.20;;;;;;5070420;28;20033;-73
2023/02/18 07:40:36;;;;;;;11.13;2.15;;;5.50;99.30;;;;;;5070734;28;20047;-72
2023/02/18 07:43:02;;;;;;;11.20;2.40;;;5.60;99.30;;;;;;5067068;28;20027;-72
2023/02/18 07:45:27;;;;;;;16.98;3.00;;;5.60;99.40;;;;;;5063083;28;20059;-72
2023/02/18 07:47:53;;;;;;;12.02;2.55;;;5.60;99.40;;;;;;5064754;28;20044;-72
2023/02/18 07:50:18;;;;;;;13.13;2.78;;;5.60;99.40;;;;;;5068648;28;20032;-72
2023/02/18 07:52:44;;;;;;;9.80;2.72;;;5.60;99.50;;;;;;5067085;28;20036;-72
2023/02/18 07:55:09;;;;;;;14.55;3.28;;;5.60;99.50;;;;;;5058700;28;20107;-72
2023/02/18 07:57:56;;;;;;;16.38;3.05;;;5.60;99.50;;;;;;5059565;28;20397;-72
2023/02/18 08:00:20;;;;;;;15.75;3.00;;;5.60;99.50;;;;;;5058782;28;20041;-72
2023/02/18 08:02:46;;;;;;;13.98;3.38;;;5.70;99.60;;;;;;5066639;28;20036;-72
2023/02/18 08:05:12;;;;;;;12.57;2.90;;;5.60;99.60;;;;;;5058296;28;20037;-72
2023/02/18 08:07:39;;;;;;;12.48;3.28;;;5.70;99.70;;;;;;5058537;28;20106;-72
2023/02/18 08:10:05;;;;;;;11.77;3.60;;;5.60;99.70;;;;;;5063498;28;20090;-72
2023/02/18 08:12:30;;;;;;;20.25;3.65;;;5.70;99.70;;;;;;5062093;28;20553;-72
2023/02/18 08:14:56;;;;;;;17.25;3.97;;;5.70;99.70;;;;;;5064149;28;20119;-72
2023/02/18 08:17:21;;;;;;;18.00;3.65;;;5.70;99.80;;;;;;5065558;28;20405;-73
2023/02/18 08:19:47;;;;;;;12.25;3.35;;;5.70;99.80;;;;;;5065781;28;20043;-73
2023/02/18 08:22:12;;;;;;;8.73;3.28;;;5.70;99.80;;;;;;5053676;28;20056;-73
2023/02/18 08:24:38;;;;;;;10.90;3.20;;;5.80;99.90;;;;;;5068471;28;20466;-73
2023/02/18 08:27:03;;;;;;;11.88;3.85;;;5.80;99.90;;;;;;5060212;28;20044;-73
2023/02/18 08:29:29;;;;;;;11.52;3.45;;;5.90;99.90;;;;;;5064890;28;20028;-73
2023/02/18 08:31:56;;;;;;;10.50;4.45;;;5.90;99.90;;;;;;5067103;28;20040;-73
2023/02/18 08:34:21;;;;;;;13.57;4.53;;;6.00;99.90;;;;;;5068738;28;20123;-73
2023/02/18 08:36:47;;;;;;;10.57;4.18;;;6.00;99.90;;;;;;5068243;28;20434;-73
2023/02/18 08:39:12;;;;;;;9.77;3.95;;;6.00;99.90;;;;;;5068910;28;20032;-73
2023/02/18 08:41:38;;;;;;;12.75;4.60;;;6.10;99.90;;;;;;5066677;28;20038;-73
2023/02/18 08:44:03;;;;;;;12.70;4.35;;;6.00;99.90;;;;;;5067586;28;20043;-73
2023/02/18 08:46:29;;;;;;;9.48;3.60;;;6.00;99.90;;;;;;5069189;28;20041;-73
2023/02/18 08:48:54;;;;;;;6.97;3.90;;;6.00;99.90;;;;;;5070342;28;20346;-73
2023/02/18 08:51:21;;;;;;;9.70;4.60;;;6.10;99.90;;;;;;5069260;28;20079;-73
2023/02/18 08:53:48;;;;;;;10.30;4.32;;;6.10;99.90;;;;;;5070819;28;20031;-73
2023/02/18 08:56:14;;;;;;;12.43;4.45;;;6.10;99.90;;;;;;5070295;28;20029;-73
2023/02/18 08:58:41;;;;;;;10.40;4.03;;;6.10;99.90;;;;;;5071128;28;20036;-73
2023/02/18 09:01:09;;;;;;;9.63;3.30;;;6.10;99.90;;;;;;5071615;28;20040;-73
2023/02/18 09:03:34;;;;;;;8.52;3.65;;;6.10;99.90;;;;;;5074697;28;20135;-73
2023/02/18 09:06:00;;;;;;;6.85;3.42;;;6.10;99.90;;;;;;5074447;28;20103;-73
2023/02/18 09:08:27;;;;;;;7.18;3.75;;;6.20;99.90;;;;;;5070298;28;20032;-73
2023/02/18 09:10:57;;;;;;;8.55;3.60;;;6.20;99.90;;;;;;5067414;28;20033;-73
2023/02/18 09:13:23;;;;;;;5.65;3.30;;;6.20;99.90;;;;;;5061598;28;20033;-72
2023/02/18 09:15:56;;;;;;;6.78;3.83;;;6.30;99.90;;;;;;5070602;28;20518;-73
2023/02/18 09:18:22;;;;;;;7.60;3.45;;;6.30;99.90;;;;;;5072255;28;20105;-73
2023/02/18 09:20:47;;;;;;;6.22;3.58;;;6.40;99.90;;;;;;5073453;28;20115;-73
2023/02/18 09:23:14;;;;;;;6.60;3.38;;;6.50;99.90;;;;;;5073291;28;20507;-73
2023/02/18 09:25:40;;;;;;;9.27;4.35;;;6.50;99.90;;;;;;5069454;28;20028;-73
2023/02/18 09:28:05;;;;;;;7.57;3.92;;;6.60;99.90;;;;;;5068379;28;20046;-72
2023/02/18 09:30:30;;;;;;;7.97;3.97;;;6.60;99.90;;;;;;5074349;28;20039;-72
2023/02/18 09:32:56;;;;;;;7.65;4.18;;;6.70;99.90;;;;;;5071785;28;20048;-72
2023/02/18 09:35:22;;;;;;;9.50;5.20;;;6.80;99.90;;;;;;5074341;28;20035;-73
2023/02/18 09:37:47;;;;;;;12.68;5.97;;;6.90;99.90;;;;;;5071144;28;20051;-72
2023/02/18 09:40:26;;;;;;;15.45;6.45;;;7.00;99.90;;;;;;5072865;28;20063;-73
2023/02/18 09:42:55;;;;;;;31.30;13.60;;;7.20;99.90;;;;;;5066985;28;20442;-73
2023/02/18 09:45:20;;;;;;;13.90;7.05;;;7.30;99.90;;;;;;5070443;28;20029;-72
2023/02/18 09:47:48;;;;;;;12.25;5.32;;;7.50;99.90;;;;;;5072102;28;20538;-72
2023/02/18 09:50:30;;;;;;;11.35;5.30;;;7.60;99.90;;;;;;5073526;28;20116;-73
2023/02/18 09:52:59;;;;;;;14.30;6.07;;;7.80;99.90;;;;;;5068391;28;20039;-73
2023/02/18 09:55:29;;;;;;;11.13;6.40;;;7.90;99.90;;;;;;5068599;28;20108;-73
2023/02/18 09:58:00;;;;;;;;;;;8.00;99.90;;;;;;5066644;28;20039;-73
2023/02/18 10:00:37;;;;;;;11.07;5.88;;;8.10;99.90;;;;;;5073484;28;19908;-72
2023/02/18 10:03:12;;;;;;;12.13;5.82;;;8.20;99.90;;;;;;5072457;28;20036;-73
2023/02/18 10:05:44;;;;;;;11.95;5.32;;;8.30;99.90;;;;;;5081624;28;20465;-72
2023/02/18 10:08:24;;;;;;;12.02;5.40;;;8.40;99.90;;;;;;5074661;28;20097;-73
2023/02/18 10:10:49;;;;;;;11.15;5.22;;;8.50;99.90;;;;;;5066558;28;20048;-72
2023/02/18 10:13:19;;;;;;;13.40;5.43;;;8.60;99.90;;;;;;5070690;28;20374;-73
2023/02/18 10:15:45;;;;;;;12.77;6.05;;;8.70;99.90;;;;;;5073078;28;20118;-73
2023/02/18 10:18:33;;;;;;;12.38;4.97;;;8.80;99.90;;;;;;5071704;28;20028;-73
2023/02/18 10:21:11;;;;;;;11.82;5.40;;;8.90;99.90;;;;;;5059191;28;20052;-73
2023/02/18 10:23:42;;;;;;;11.18;5.35;;;9.00;99.90;;;;;;5072025;28;20400;-73
2023/02/18 10:26:14;;;;;;;10.68;4.78;;;9.10;99.90;;;;;;5059984;28;20148;-73
2023/02/18 10:28:40;;;;;;;9.90;4.43;;;9.20;99.90;;;;;;5071961;28;20401;-74
2023/02/18 10:31:11;;;;;;;9.00;3.95;;;9.20;99.90;;;;;;5070898;28;20036;-73
2023/02/18 10:33:52;;;;;;;;;;;9.30;99.90;;;;;;5071891;28;20040;-73
2023/02/18 10:36:24;;;;;;;5.90;3.37;;;9.30;99.90;;;;;;5069747;28;20317;-73
2023/02/18 10:39:31;;;;;;;7.05;3.72;;;9.40;99.90;;;;;;5067814;28;20314;-73
2023/02/18 10:42:18;;;;;;;5.95;3.05;;;9.40;99.90;;;;;;5069100;28;20029;-73
2023/02/18 10:45:04;;;;;;;6.38;3.45;;;9.40;99.90;;;;;;5071339;28;20032;-74
2023/02/18 10:47:37;;;;;;;7.05;3.20;;;9.40;99.90;;;;;;5065721;28;20062;-73
2023/02/18 10:50:08;;;;;;;6.90;3.10;;;9.50;99.90;;;;;;5072245;28;20166;-75
2023/02/18 10:52:39;;;;;;;7.40;3.53;;;9.50;99.90;;;;;;5071315;28;20035;-74
2023/02/18 10:55:17;;;;;;;6.85;3.50;;;9.50;99.90;;;;;;5069903;28;20036;-73
2023/02/18 10:57:51;;;;;;;7.40;3.60;;;9.50;99.90;;;;;;5066483;28;20092;-73
2023/02/18 11:00:25;;;;;;;7.47;3.78;;;9.50;99.90;;;;;;5072188;28;20178;-73
2023/02/18 11:03:15;;;;;;;8.93;4.70;;;9.50;99.90;;;;;;5070818;28;20035;-73
2023/02/18 11:05:42;;;;;;;6.72;3.72;;;9.50;99.90;;;;;;5072278;28;20043;-73
2023/02/18 11:08:13;;;;;;;7.05;4.90;;;9.60;99.90;;;;;;5066883;28;20078;-73
2023/02/18 11:10:40;;;;;;;;;;;9.60;99.90;;;;;;5069066;28;20033;-73
2023/02/18 11:13:08;;;;;;;5.78;3.30;;;9.60;99.90;;;;;;5070075;28;19938;-73
2023/02/18 11:15:34;;;;;;;6.43;3.67;;;9.50;99.90;;;;;;5072175;28;20083;-73
2023/02/18 11:18:25;;;;;;;7.40;4.93;;;9.60;99.90;;;;;;5069354;28;20492;-73
2023/02/18 11:21:03;;;;;;;9.65;5.65;;;9.60;99.90;;;;;;5057510;28;20044;-75
2023/02/18 11:23:29;;;;;;;8.75;4.82;;;9.50;99.90;;;;;;5068249;28;20041;-73
2023/02/18 11:26:10;;;;;;;7.38;4.60;;;9.50;99.90;;;;;;5068955;28;20063;-73
2023/02/18 11:28:49;;;;;;;7.75;5.30;;;9.50;99.90;;;;;;5070407;28;20032;-74
2023/02/18 11:31:29;;;;;;;6.63;4.10;;;9.50;99.90;;;;;;5069658;28;20068;-74
2023/02/18 11:33:59;;;;;;;8.15;4.88;;;9.40;99.80;;;;;;5070968;28;20465;-74
2023/02/18 11:36:29;;;;;;;8.20;4.93;;;9.50;99.80;;;;;;5069554;28;20029;-74
2023/02/18 11:39:03;;;;;;;6.28;3.78;;;9.50;99.80;;;;;;5065035;28;20025;-74
2023/02/18 11:41:37;;;;;;;8.77;3.90;;;9.40;99.80;;;;;;5064672;28;20036;-74
2023/02/18 11:44:07;;;;;;;7.82;4.13;;;9.40;99.80;;;;;;5069979;28;20039;-74
2023/02/18 11:46:33;;;;;;;7.68;4.38;;;9.50;99.90;;;;;;5071102;28;20032;-73
2023/02/18 11:49:20;;;;;;;7.75;4.20;;;9.40;99.90;;;;;;5067202;28;20499;-74
2023/02/18 11:51:47;;;;;;;6.28;4.45;;;9.50;99.90;;;;;;5070730;28;20036;-74
2023/02/18 11:54:30;;;;;;;7.07;4.72;;;9.50;99.90;;;;;;5069649;28;20036;-74
2023/02/18 11:57:08;;;;;;;7.05;3.15;;;9.40;99.90;;;;;;5066225;28;20035;-74
2023/02/18 11:59:36;;;;;;;8.05;4.05;;;9.50;99.90;;;;;;5070172;28;20074;-73
2023/02/18 12:02:26;;;;;;;5.43;3.53;;;9.50;99.90;;;;;;5071658;28;20086;-74
2023/02/18 12:05:12;;;;;;;8.20;3.65;;;9.40;99.90;;;;;;5071981;28;20059;-74
2023/02/18 12:07:51;;;;;;;6.07;3.58;;;9.40;99.90;;;;;;5064640;28;20047;-75
2023/02/18 12:10:33;;;;;;;6.80;3.28;;;9.50;99.90;;;;;;5068439;28;20020;-74
2023/02/18 12:13:20;;;;;;;4.93;2.63;;;9.50;99.90;;;;;;5068489;28;20388;-74
2023/02/18 12:16:08;;;;;;;4.15;2.10;;;9.50;99.90;;;;;;5070857;28;20032;-74
2023/02/18 12:18:33;;;;;;;4.97;2.10;;;9.50;99.90;;;;;;5067657;28;20534;-74
2023/02/18 12:21:31;;;;;;;3.97;1.80;;;9.50;99.80;;;;;;5065149;28;20104;-74
2023/02/18 12:24:10;;;;;;;4.40;1.85;;;9.50;99.70;;;;;;5066034;28;20052;-74
2023/02/18 12:26:48;;;;;;;3.22;1.38;;;9.50;99.70;;;;;;5064400;28;20028;-74
2023/02/18 12:29:39;;;;;;;6.47;1.73;;;9.60;99.70;;;;;;5070424;28;20542;-74
2023/02/18 12:32:18;;;;;;;;;;;9.60;99.80;;;;;;5073806;28;20029;-74
2023/02/18 12:35:01;;;;;;;2.38;1.17;;;9.60;99.60;;;;;;5071148;28;19908;-74
2023/02/18 12:37:39;;;;;;;2.85;1.63;;;9.60;99.60;;;;;;5066826;28;20051;-74
2023/02/18 12:40:19;;;;;;;5.75;1.75;;;9.50;99.50;;;;;;5067198;28;20033;-74
2023/02/18 12:43:01;;;;;;;3.88;1.50;;;9.50;99.60;;;;;;5070761;28;20024;-74
2023/02/18 12:45:52;;;;;;;2.55;1.30;;;9.50;99.50;;;;;;5071436;28;20807;-74
2023/02/18 12:48:54;;;;;;;4.95;1.92;;;9.50;99.70;;;;;;5070081;28;20033;-74
2023/02/18 12:51:54;;;;;;;4.63;1.80;;;9.50;99.90;;;;;;5073032;28;20036;-74
2023/02/18 12:54:56;;;;;;;5.50;1.63;;;9.40;99.90;;;;;;5063218;28;20033;-74
2023/02/18 12:57:33;;;;;;;1.42;1.10;;;9.40;99.90;;;;;;5065730;28;20039;-75
2023/02/18 13:00:36;;;;;;;4.68;1.50;;;9.40;99.80;;;;;;5073673;28;20035;-76
2023/02/18 13:03:13;;;;;;;7.68;1.88;;;9.40;99.90;;;;;;5072596;28;20044;-74
2023/02/18 13:05:53;;;;;;;6.63;1.50;;;9.40;99.80;;;;;;5082448;28;20077;-75
2023/02/18 13:08:22;;;;;;;1.02;0.80;;;9.40;99.70;;;;;;5065629;28;20059;-74
2023/02/18 13:11:00;;;;;;;3.42;1.20;;;9.40;99.60;;;;;;5072512;28;20045;-74
2023/02/18 13:13:32;;;;;;;2.42;1.30;;;9.40;99.20;;;;;;5061101;28;20021;-74